EGPF/GLA METAR and TAF weather

Enter ICAO airport designator
Station Type Date Time Source
EGPF METAR 2018/12/18 11:20 UTC NOAA

EGPF 181120Z AUTO 17011KT 9999 -RA //////TCU 10/08 Q0993


Station Type Date Time Source
EGPF Decoded METAR 2018/12/18 11:20 UTC NOAA

Glasgow Airport, United Kingdom (EGPF) 55-52N 004-26W 0M
Dec 18, 2018 - 06:20 AM EST / 2018.12.18 1120 UTC
Wind: from the S (170 degrees) at 13 MPH (11 KT):0
Visibility: greater than 7 mile(s):0
Weather: light rain; Towering cumulus clouds observed
Temperature: 50 F (10 C)
Dew Point: 46 F (8 C)
Relative Humidity: 87%
Pressure (altimeter): 29.32 in. Hg (0993 hPa)
ob: EGPF 181120Z AUTO 17011KT 9999 -RA //////TCU 10/08 Q0993
cycle: 11

Station Type Date Time Source
EGPF TAF 2018/12/18 12:09 UTC NOAA

TAF EGPF 181058Z 1812/1912 18017KT 9999 BKN025
TEMPO 1812/1814 16020G35KT 6000 RA
BECMG 1815/1818 15007KT PROB30
TEMPO 1815/1901 7000 SHRA


Example: see airport list